createdAt,value
2018-09-23T00:01:37.764Z,100369.08
2018-09-23T00:04:06.300Z,100368.32
2018-09-23T00:06:34.931Z,100367.84
2018-09-23T00:09:03.816Z,100366.16
2018-09-23T00:11:32.338Z,100370.79
2018-09-23T00:14:00.928Z,100359.58
2018-09-23T00:16:29.418Z,100348.39
2018-09-23T00:18:57.982Z,100342.52
2018-09-23T00:21:26.771Z,100333.18
2018-09-23T00:23:55.513Z,100334.84
2018-09-23T00:26:24.303Z,100345.31
2018-09-23T00:28:52.961Z,100349.52
2018-09-23T00:31:21.536Z,100343.62
2018-09-23T00:33:50.172Z,100350.36
2018-09-23T00:36:18.731Z,100345.74
2018-09-23T00:38:47.367Z,100347.94
2018-09-23T00:41:15.935Z,100346.09
2018-09-23T00:43:44.402Z,100348.23
2018-09-23T00:46:12.955Z,100336.55
2018-09-23T00:48:41.386Z,100342.19
2018-09-23T00:51:09.846Z,100336.33
2018-09-23T00:53:38.324Z,100333.41
2018-09-23T00:56:07.358Z,100335.47
2018-09-23T00:58:35.994Z,100337.56
2018-09-23T01:01:04.602Z,100331.91
2018-09-23T01:03:33.065Z,100314.86
2018-09-23T01:06:01.572Z,100328.73
2018-09-23T01:08:30.378Z,100324.91
2018-09-23T01:10:59.213Z,100325.23
2018-09-23T01:13:27.903Z,100317.28
2018-09-23T01:15:56.574Z,100320.25
2018-09-23T01:18:25.024Z,100324.00
2018-09-23T01:20:53.585Z,100318.97
2018-09-23T01:23:22.395Z,100315.49
2018-09-23T01:25:51.023Z,100306.70
2018-09-23T01:28:19.473Z,100311.73
2018-09-23T01:30:47.946Z,100308.29
2018-09-23T01:33:16.504Z,100297.66
2018-09-23T01:35:45.002Z,100294.99
2018-09-23T01:38:13.629Z,100281.86
2018-09-23T01:40:42.120Z,100275.02
2018-09-23T01:43:10.814Z,100270.52
2018-09-23T01:45:39.361Z,100275.13
2018-09-23T01:48:07.939Z,100275.45
2018-09-23T01:50:36.384Z,100281.84
2018-09-23T01:53:04.959Z,100281.90
2018-09-23T01:55:33.468Z,100285.65
2018-09-23T01:58:02.101Z,100278.37
2018-09-23T02:00:30.959Z,100279.12
2018-09-23T02:02:59.514Z,100284.16
2018-09-23T02:05:28.163Z,100284.64
2018-09-23T02:07:56.950Z,100280.69
2018-09-23T02:10:25.789Z,100286.33
2018-09-23T02:12:54.240Z,100272.45
2018-09-23T02:15:22.905Z,100279.41
2018-09-23T02:17:51.528Z,100276.16
2018-09-23T02:20:20.041Z,100276.94
2018-09-23T02:22:48.502Z,100269.48
2018-09-23T02:25:17.941Z,100271.80
2018-09-23T02:27:46.436Z,100270.01
2018-09-23T02:30:15.072Z,100263.89
2018-09-23T02:32:43.891Z,100261.02
2018-09-23T02:35:12.420Z,100257.63
2018-09-23T02:37:40.933Z,100252.86
2018-09-23T02:40:09.401Z,100244.91
2018-09-23T02:42:37.969Z,100243.87
2018-09-23T02:45:06.782Z,100239.05
2018-09-23T02:47:35.699Z,100242.48
2018-09-23T02:50:04.844Z,100241.97
2018-09-23T02:52:33.559Z,100243.35
2018-09-23T02:55:02.145Z,100237.77
2018-09-23T02:57:30.622Z,100239.05
2018-09-23T02:59:59.135Z,100236.13
2018-09-23T03:02:27.735Z,100228.17
2018-09-23T03:04:57.790Z,100229.75
2018-09-23T03:07:27.095Z,100226.53
2018-09-23T03:09:55.971Z,100224.94
2018-09-23T03:12:24.873Z,100230.06
2018-09-23T03:14:54.548Z,100234.53
2018-09-23T03:17:24.492Z,100235.14
2018-09-23T03:19:53.236Z,100232.48
2018-09-23T03:22:22.046Z,100231.39
2018-09-23T03:24:55.845Z,100224.41
2018-09-23T03:27:24.568Z,100210.31
2018-09-23T03:29:53.242Z,100208.20
2018-09-23T03:32:21.984Z,100203.48
2018-09-23T03:34:56.595Z,100205.34
2018-09-23T03:37:25.051Z,100202.36
2018-09-23T03:39:53.493Z,100206.37
2018-09-23T03:42:22.009Z,100197.78
2018-09-23T03:44:50.591Z,100200.70
2018-09-23T03:47:19.127Z,100200.20
2018-09-23T03:49:47.848Z,100191.11
2018-09-23T03:52:16.412Z,100191.89
2018-09-23T03:54:45.223Z,100186.30
2018-09-23T03:57:13.783Z,100178.30
2018-09-23T03:59:42.304Z,100173.56
2018-09-23T04:02:10.926Z,100173.88
2018-09-23T04:04:39.570Z,100174.29
2018-09-23T04:07:08.114Z,100165.36
2018-09-23T04:09:36.512Z,100163.45
2018-09-23T04:12:05.030Z,100159.80
2018-09-23T04:14:33.851Z,100161.47
2018-09-23T04:17:02.323Z,100153.34
2018-09-23T04:19:30.891Z,100155.31
2018-09-23T04:21:59.445Z,100156.34
2018-09-23T04:24:28.074Z,100162.28
2018-09-23T04:26:56.628Z,100161.98
2018-09-23T04:29:26.297Z,100157.45
2018-09-23T04:31:55.019Z,100164.34
2018-09-23T04:34:23.744Z,100163.88
2018-09-23T04:36:52.282Z,100156.95
2018-09-23T04:39:20.960Z,100149.98
2018-09-23T04:41:49.503Z,100145.45
2018-09-23T04:44:18.279Z,100142.02
2018-09-23T04:46:46.884Z,100146.59
2018-09-23T04:49:15.318Z,100148.44
2018-09-23T04:51:43.877Z,100144.64
2018-09-23T04:54:12.449Z,100140.95
2018-09-23T04:56:41.803Z,100145.20
2018-09-23T04:59:10.536Z,100143.36
2018-09-23T05:01:39.274Z,100145.05
2018-09-23T05:04:07.826Z,100143.72
2018-09-23T05:06:36.293Z,100149.88
2018-09-23T05:09:06.023Z,100145.66
2018-09-23T05:11:34.485Z,100154.48
2018-09-23T05:14:03.183Z,100140.12
2018-09-23T05:16:31.752Z,100133.76
2018-09-23T05:19:00.268Z,100131.56
2018-09-23T05:21:28.825Z,100132.64
2018-09-23T05:23:57.360Z,100129.98
2018-09-23T05:26:25.926Z,100121.45
2018-09-23T05:28:54.512Z,100127.81
2018-09-23T05:31:23.051Z,100121.66
2018-09-23T05:33:51.990Z,100120.32
2018-09-23T05:36:20.615Z,100120.64
2018-09-23T05:38:49.056Z,100104.64
2018-09-23T05:41:17.581Z,100100.42
2018-09-23T05:43:46.073Z,100098.23
2018-09-23T05:46:14.568Z,100090.23
2018-09-23T05:48:43.298Z,100083.61
2018-09-23T05:51:12.175Z,100083.81
2018-09-23T05:53:40.705Z,100071.30
2018-09-23T05:56:09.355Z,100071.08
2018-09-23T05:58:37.926Z,100071.75
2018-09-23T06:01:06.719Z,100075.20
2018-09-23T06:03:35.167Z,100082.73
2018-09-23T06:06:03.911Z,100080.53
2018-09-23T06:08:34.227Z,100085.45
2018-09-23T06:11:02.799Z,100091.31
2018-09-23T06:13:31.427Z,100087.86
2018-09-23T06:15:59.965Z,100069.25
2018-09-23T06:18:28.755Z,100054.47
2018-09-23T06:20:57.281Z,100064.64
2018-09-23T06:23:25.825Z,100074.53
2018-09-23T06:25:59.409Z,100066.22
2018-09-23T06:28:28.176Z,100064.42
2018-09-23T06:30:57.779Z,100066.64
2018-09-23T06:33:26.667Z,100075.41
2018-09-23T06:35:55.227Z,100058.64
2018-09-23T06:38:23.868Z,100056.94
2018-09-23T06:40:52.677Z,100068.42
2018-09-23T06:43:21.231Z,100071.03
2018-09-23T06:45:49.856Z,100069.14
2018-09-23T06:48:18.525Z,100075.39
2018-09-23T06:50:47.151Z,100068.25
2018-09-23T06:53:15.769Z,100049.09
2018-09-23T06:55:44.530Z,100045.59
2018-09-23T06:58:13.096Z,100052.05
2018-09-23T07:00:41.679Z,100054.47
2018-09-23T07:03:10.354Z,100062.92
2018-09-23T07:05:39.275Z,100063.39
2018-09-23T07:08:07.949Z,100067.03
2018-09-23T07:10:36.607Z,100081.81
2018-09-23T07:13:05.298Z,100080.08
2018-09-23T07:15:33.919Z,100081.21
2018-09-23T07:18:02.557Z,100058.38
2018-09-23T07:20:30.983Z,100040.59
2018-09-23T07:22:59.918Z,100043.27
2018-09-23T07:25:28.463Z,100044.23
2018-09-23T07:27:57.445Z,100037.77
2018-09-23T07:30:26.282Z,100043.94
2018-09-23T07:32:54.839Z,100048.49
2018-09-23T07:35:23.407Z,100048.38
2018-09-23T07:37:51.915Z,100056.02
2018-09-23T07:40:20.371Z,100065.81
2018-09-23T07:42:49.513Z,100068.42
2018-09-23T07:45:18.395Z,100075.61
2018-09-23T07:47:46.969Z,100077.97
2018-09-23T07:50:15.507Z,100062.73
2018-09-23T07:52:44.085Z,100041.39
2018-09-23T07:55:12.605Z,100040.17
2018-09-23T07:57:41.363Z,100031.41
2018-09-23T08:00:10.507Z,100034.02
2018-09-23T08:02:38.970Z,100036.64
2018-09-23T08:05:07.607Z,100045.20
2018-09-23T08:07:37.284Z,100048.84
2018-09-23T08:10:06.132Z,100035.80
2018-09-23T08:12:34.997Z,100033.39
2018-09-23T08:15:03.721Z,100044.31
2018-09-23T08:17:32.570Z,100033.28
2018-09-23T08:20:05.685Z,100023.58
2018-09-23T08:22:36.991Z,100011.70
2018-09-23T08:25:06.016Z,100002.00
2018-09-23T08:27:37.844Z,99993.32
2018-09-23T08:30:08.103Z,99986.90
2018-09-23T08:32:36.717Z,99975.55
2018-09-23T08:35:05.269Z,99981.32
2018-09-23T08:37:33.840Z,99978.34
2018-09-23T08:40:02.669Z,99978.34
2018-09-23T08:42:31.261Z,99983.15
2018-09-23T08:44:59.988Z,99986.34
2018-09-23T08:47:35.212Z,99979.55
2018-09-23T08:50:06.478Z,99982.22
2018-09-23T08:52:37.590Z,99991.25
2018-09-23T08:55:06.636Z,99989.64
2018-09-23T08:57:36.750Z,99986.09
2018-09-23T09:00:08.242Z,99969.71
2018-09-23T09:02:38.895Z,99973.83
2018-09-23T09:05:07.745Z,99968.43
2018-09-23T09:07:36.605Z,99963.09
2018-09-23T09:10:05.279Z,99954.31
2018-09-23T09:12:34.435Z,99953.69
2018-09-23T09:15:03.530Z,99933.97
2018-09-23T09:17:32.117Z,99935.87
2018-09-23T09:20:00.893Z,99937.20
2018-09-23T09:22:29.667Z,99940.27
2018-09-23T09:24:58.280Z,99934.69
2018-09-23T09:27:26.960Z,99928.25
2018-09-23T09:29:55.546Z,99934.09
2018-09-23T09:32:24.325Z,99931.42
2018-09-23T09:34:53.253Z,99920.18
2018-09-23T09:37:21.908Z,99900.75
2018-09-23T09:39:50.504Z,99894.33
2018-09-23T09:42:19.198Z,99884.45
2018-09-23T09:44:47.812Z,99888.60
2018-09-23T09:47:16.440Z,99888.14
2018-09-23T09:49:45.022Z,99870.78
2018-09-23T09:52:14.137Z,99869.20
2018-09-23T09:54:43.649Z,99867.09
2018-09-23T09:57:12.610Z,99857.19
2018-09-23T09:59:41.412Z,99843.52
2018-09-23T10:02:09.891Z,99853.28
2018-09-23T10:04:38.503Z,99853.45
2018-09-23T10:07:07.164Z,99848.64
2018-09-23T10:09:37.205Z,99853.14
2018-09-23T10:12:05.837Z,99849.28
2018-09-23T10:14:34.485Z,99835.69
2018-09-23T10:17:03.166Z,99826.97
2018-09-23T10:19:31.912Z,99826.23
2018-09-23T10:22:00.454Z,99820.13
2018-09-23T10:24:29.204Z,99814.53
2018-09-23T10:26:57.996Z,99814.53
2018-09-23T10:29:26.577Z,99816.96
2018-09-23T10:31:55.500Z,99804.41
2018-09-23T10:34:24.107Z,99794.52
2018-09-23T10:36:52.771Z,99788.25
2018-09-23T10:39:21.437Z,99792.26
2018-09-23T10:41:49.987Z,99772.30
2018-09-23T10:44:18.699Z,99758.70
2018-09-23T10:46:47.441Z,99748.48
2018-09-23T10:49:16.204Z,99750.23
2018-09-23T10:51:44.993Z,99754.72
2018-09-23T10:54:21.778Z,99752.83
2018-09-23T10:56:50.392Z,99743.23
2018-09-23T10:59:19.351Z,99730.12
2018-09-23T11:01:48.185Z,99714.66
2018-09-23T11:04:16.798Z,99711.11
2018-09-23T11:06:45.455Z,99706.09
2018-09-23T11:09:14.017Z,99697.84
2018-09-23T11:11:42.719Z,99688.33
2018-09-23T11:14:11.305Z,99676.62
2018-09-23T11:16:39.777Z,99672.09
2018-09-23T11:19:08.307Z,99662.11
2018-09-23T11:21:36.892Z,99651.91
2018-09-23T11:24:05.619Z,99647.58
2018-09-23T11:26:34.491Z,99605.09
2018-09-23T11:29:03.111Z,99604.37
2018-09-23T11:31:31.747Z,99600.60
2018-09-23T11:34:00.281Z,99593.28
2018-09-23T11:36:28.912Z,99590.16
2018-09-23T11:38:57.517Z,99602.39
2018-09-23T11:41:26.089Z,99606.39
2018-09-23T11:43:54.608Z,99605.46
2018-09-23T11:46:23.259Z,99589.77
2018-09-23T11:48:51.790Z,99573.05
2018-09-23T11:51:20.630Z,99556.95
2018-09-23T11:53:49.240Z,99550.72
2018-09-23T11:56:18.148Z,99534.08
2018-09-23T11:58:46.779Z,99527.76
2018-09-23T12:01:15.293Z,99527.52
2018-09-23T12:03:43.859Z,99513.95
2018-09-23T12:06:12.442Z,99498.79
2018-09-23T12:08:41.015Z,99493.53
2018-09-23T12:11:09.537Z,99487.19
2018-09-23T12:13:38.301Z,99476.83
2018-09-23T12:16:07.011Z,99473.75
2018-09-23T12:18:35.651Z,99444.37
2018-09-23T12:21:04.277Z,99430.45
2018-09-23T12:23:32.761Z,99428.11
2018-09-23T12:26:01.544Z,99414.16
2018-09-23T12:28:30.084Z,99387.35
2018-09-23T12:30:58.629Z,99374.75
2018-09-23T12:33:27.495Z,99370.74
2018-09-23T12:36:00.285Z,99365.84
2018-09-23T12:38:28.871Z,99348.72
2018-09-23T12:40:57.403Z,99345.28
2018-09-23T12:43:26.138Z,99317.09
2018-09-23T12:45:54.988Z,99307.27
2018-09-23T12:48:23.489Z,99289.91
2018-09-23T12:50:52.473Z,99281.56
2018-09-23T12:53:21.159Z,99269.08
2018-09-23T12:55:49.825Z,99267.84
2018-09-23T12:58:18.739Z,99251.38
2018-09-23T13:00:47.403Z,99239.45
2018-09-23T13:03:16.195Z,99231.75
2018-09-23T13:05:44.831Z,99225.41
2018-09-23T13:08:13.625Z,99229.50
2018-09-23T13:10:42.257Z,99226.50
2018-09-23T13:13:11.083Z,99215.05
2018-09-23T13:15:39.928Z,99212.39
2018-09-23T13:18:09.463Z,99209.95
2018-09-23T13:20:38.119Z,99203.61
2018-09-23T13:23:07.053Z,99200.37
2018-09-23T13:25:35.923Z,99184.83
2018-09-23T13:28:04.764Z,99160.56
2018-09-23T13:30:34.053Z,99156.99
2018-09-23T13:33:02.566Z,99146.52
2018-09-23T13:35:31.099Z,99146.94
2018-09-23T13:37:59.713Z,99163.83
2018-09-23T13:40:28.522Z,99160.36
2018-09-23T13:42:57.120Z,99172.30
2018-09-23T13:45:25.974Z,99185.18
2018-09-23T13:47:54.529Z,99203.40
2018-09-23T13:50:23.476Z,99193.82
2018-09-23T13:52:52.554Z,99182.94
2018-09-23T13:55:21.257Z,99174.94
2018-09-23T13:57:50.267Z,99147.00
2018-09-23T14:00:19.027Z,99130.29
2018-09-23T14:02:47.631Z,99112.17
2018-09-23T14:05:16.283Z,99085.25
2018-09-23T14:07:44.824Z,99066.54
2018-09-23T14:10:13.413Z,99056.77
2018-09-23T14:12:42.011Z,99039.28
2018-09-23T14:15:10.573Z,99025.45
2018-09-23T14:17:39.351Z,99028.22
2018-09-23T14:20:07.964Z,99008.01
2018-09-23T14:22:36.488Z,98991.53
2018-09-23T14:25:10.355Z,99001.31
2018-09-23T14:27:39.176Z,99000.41
2018-09-23T14:30:08.904Z,98985.30
2018-09-23T14:32:37.522Z,98971.97
2018-09-23T14:35:07.412Z,98954.63
2018-09-23T14:37:36.146Z,98946.52
2018-09-23T14:40:04.925Z,98932.85
2018-09-23T14:42:33.758Z,98927.18
2018-09-23T14:45:02.799Z,98920.84
2018-09-23T14:47:31.415Z,98887.38
2018-09-23T14:50:00.067Z,98860.94
2018-09-23T14:52:28.869Z,98862.39
2018-09-23T14:54:57.450Z,98882.94
2018-09-23T14:57:26.233Z,98880.52
2018-09-23T14:59:54.873Z,98864.86
2018-09-23T15:02:24.331Z,98835.92
2018-09-23T15:04:53.010Z,98824.94
2018-09-23T15:10:01.736Z,98831.71
2018-09-23T15:12:45.031Z,98826.61
2018-09-23T15:15:13.971Z,98800.48
2018-09-23T15:17:42.534Z,98800.80
2018-09-23T15:20:11.089Z,98835.16
2018-09-23T15:22:39.743Z,98835.04
2018-09-23T15:25:08.471Z,98817.92
2018-09-23T15:27:37.660Z,98819.89
2018-09-23T15:30:06.398Z,98846.77
2018-09-23T15:32:35.172Z,98863.78
2018-09-23T15:35:04.740Z,98889.34
2018-09-23T15:37:33.613Z,98939.55
2018-09-23T15:40:02.172Z,98954.11
2018-09-23T15:42:31.135Z,98921.44
2018-09-23T15:45:00.238Z,98928.41
2018-09-23T15:47:28.992Z,98895.49
2018-09-23T15:49:57.658Z,98898.80
2018-09-23T15:52:26.394Z,98951.10
2018-09-23T15:54:55.260Z,98940.91
2018-09-23T15:57:23.919Z,98897.13
2018-09-23T15:59:52.585Z,98858.81
2018-09-23T16:02:21.316Z,98839.92
2018-09-23T16:04:50.090Z,98855.81
2018-09-23T16:07:19.000Z,98809.17
2018-09-23T16:09:47.920Z,98800.08
2018-09-23T16:12:16.813Z,98792.08
2018-09-23T16:14:45.622Z,98776.09
2018-09-23T16:17:15.343Z,98751.09
2018-09-23T16:19:44.066Z,98711.45
2018-09-23T16:22:12.539Z,98678.69
2018-09-23T16:24:41.547Z,98724.65
2018-09-23T16:27:10.428Z,98770.52
2018-09-23T16:29:39.090Z,98831.83
2018-09-23T16:32:08.179Z,98842.59
2018-09-23T16:34:37.764Z,98881.56
2018-09-23T16:37:06.853Z,98879.30
2018-09-23T16:39:35.605Z,98820.58
2018-09-23T16:42:04.295Z,98760.49
2018-09-23T16:44:33.175Z,98683.88
2018-09-23T16:47:01.747Z,98738.61
2018-09-23T16:49:30.741Z,98752.27
2018-09-23T16:51:59.582Z,98761.59
2018-09-23T16:54:28.616Z,98827.87
2018-09-23T16:56:57.825Z,98853.75
2018-09-23T16:59:26.579Z,98861.75
2018-09-23T17:01:56.180Z,98882.36
2018-09-23T17:04:24.982Z,98895.78
2018-09-23T17:06:53.935Z,98968.44
2018-09-23T17:09:23.007Z,99006.97
2018-09-23T17:11:51.837Z,99008.17
2018-09-23T17:14:20.916Z,98991.41
2018-09-23T17:16:49.955Z,98972.72
2018-09-23T17:19:18.812Z,98981.90
2018-09-23T17:21:47.617Z,99001.64
2018-09-23T17:24:16.336Z,99033.41
2018-09-23T17:26:45.127Z,99019.97
2018-09-23T17:29:14.176Z,99011.77
2018-09-23T17:31:43.090Z,99006.30
2018-09-23T17:34:11.998Z,99035.92
2018-09-23T17:36:46.078Z,99125.53
2018-09-23T17:39:14.705Z,99176.38
2018-09-23T17:41:43.611Z,99184.47
2018-09-23T17:44:12.845Z,99181.27
2018-09-23T17:46:41.704Z,99157.44
2018-09-23T17:49:11.192Z,99181.70
2018-09-23T17:51:39.809Z,99218.70
2018-09-23T17:54:08.858Z,99225.31
2018-09-23T17:56:37.472Z,99200.14
2018-09-23T17:59:06.241Z,99199.59
2018-09-23T18:01:34.940Z,99180.27
2018-09-23T18:04:03.996Z,99171.27
2018-09-23T18:06:32.811Z,99155.46
2018-09-23T18:09:01.859Z,99145.75
2018-09-23T18:11:30.478Z,99152.48
2018-09-23T18:13:59.591Z,99193.30
2018-09-23T18:16:28.478Z,99226.83
2018-09-23T18:18:57.360Z,99270.27
2018-09-23T18:21:26.326Z,99314.34
2018-09-23T18:23:55.164Z,99308.30
2018-09-23T18:29:23.137Z,99277.53
2018-09-23T18:31:52.479Z,99297.78
2018-09-23T18:34:21.399Z,99252.70
2018-09-23T18:36:50.438Z,99277.63
2018-09-23T18:39:19.184Z,99279.09
2018-09-23T18:41:48.792Z,99287.77
2018-09-23T18:44:17.765Z,99349.91
2018-09-23T18:46:47.478Z,99390.36
2018-09-23T18:49:16.562Z,99421.19
2018-09-23T18:51:45.856Z,99465.06
2018-09-23T18:54:19.884Z,99483.31
2018-09-23T18:56:48.935Z,99475.55
2018-09-23T18:59:17.620Z,99435.56
2018-09-23T19:01:46.524Z,99501.43
2018-09-23T19:04:15.286Z,99489.58
2018-09-23T19:06:53.274Z,99511.72
2018-09-23T19:09:22.483Z,99510.67
2018-09-23T19:11:51.640Z,99496.11
2018-09-23T19:14:21.175Z,99490.73
2018-09-23T19:16:49.812Z,99454.89
2018-09-23T19:19:18.603Z,99503.86
2018-09-23T19:21:47.450Z,99497.80
2018-09-23T19:24:16.488Z,99489.11
2018-09-23T19:26:45.307Z,99561.25
2018-09-23T19:29:13.874Z,99557.88
2018-09-23T19:31:42.766Z,99554.75
2018-09-23T19:34:11.343Z,99488.41
2018-09-23T19:36:41.492Z,99533.65
2018-09-23T19:39:10.404Z,99481.33
2018-09-23T19:41:39.418Z,99559.73
2018-09-23T19:44:08.486Z,99594.03
2018-09-23T19:46:37.330Z,99625.20
2018-09-23T19:49:06.984Z,99599.75
2018-09-23T19:51:35.890Z,99604.55
2018-09-23T19:54:05.080Z,99649.94
2018-09-23T19:56:34.380Z,99653.45
2018-09-23T19:59:04.237Z,99659.39
2018-09-23T20:01:34.202Z,99682.58
2018-09-23T20:04:03.094Z,99695.19
2018-09-23T20:06:32.058Z,99706.33
2018-09-23T20:09:01.315Z,99739.94
2018-09-23T20:11:29.998Z,99764.83
2018-09-23T20:13:58.692Z,99771.81
2018-09-23T20:16:27.478Z,99780.37
2018-09-23T20:18:56.456Z,99797.43
2018-09-23T20:21:25.464Z,99823.73
2018-09-23T20:23:54.090Z,99853.77
2018-09-23T20:26:27.722Z,99861.27
2018-09-23T20:28:56.826Z,99865.25
2018-09-23T20:31:25.826Z,99878.23
2018-09-23T20:33:54.779Z,99875.58
2018-09-23T20:36:23.813Z,99873.98
2018-09-23T20:38:52.644Z,99871.33
2018-09-23T20:41:21.305Z,99906.16
2018-09-23T20:43:49.905Z,99912.28
2018-09-23T20:46:18.495Z,99920.03
2018-09-23T20:48:47.034Z,99919.25
2018-09-23T20:51:16.038Z,99944.75
2018-09-23T20:53:44.935Z,99956.44
2018-09-23T20:56:13.952Z,99957.61
2018-09-23T20:58:42.812Z,99952.84
2018-09-23T21:01:11.408Z,99975.19
2018-09-23T21:03:39.926Z,99976.48
2018-09-23T21:06:08.846Z,99983.16
2018-09-23T21:08:37.377Z,99994.37
2018-09-23T21:11:05.938Z,100004.70
2018-09-23T21:13:34.462Z,100015.61
2018-09-23T21:21:53.728Z,100038.38
2018-09-23T21:24:22.496Z,100036.20
2018-09-23T21:26:51.793Z,100047.15
2018-09-23T21:29:20.835Z,100044.52
2018-09-23T21:31:49.624Z,100052.20
2018-09-23T21:34:18.197Z,100056.19
2018-09-23T21:36:47.090Z,100073.45
2018-09-23T21:39:15.692Z,100061.23
2018-09-23T21:41:44.428Z,100079.02
2018-09-23T21:44:13.174Z,100084.62
2018-09-23T21:46:41.714Z,100091.52
2018-09-23T21:49:10.265Z,100100.50
2018-09-23T21:51:38.890Z,100098.42
2018-09-23T21:54:07.796Z,100097.66
2018-09-23T21:56:36.461Z,100113.52
2018-09-23T21:59:06.204Z,100119.38
2018-09-23T22:01:35.085Z,100120.75
2018-09-23T22:04:04.090Z,100122.58
2018-09-23T22:06:51.676Z,100142.02
2018-09-23T22:09:20.778Z,100151.08
2018-09-23T22:11:49.396Z,100160.61
2018-09-23T22:14:18.090Z,100166.20
2018-09-23T22:16:46.823Z,100164.38
2018-09-23T22:19:15.917Z,100172.84
2018-09-23T22:21:45.151Z,100175.50
2018-09-23T22:24:14.436Z,100169.92
2018-09-23T22:26:43.534Z,100180.55
2018-09-23T22:29:12.734Z,100183.51
2018-09-23T22:31:41.530Z,100183.74
2018-09-23T22:34:10.188Z,100192.28
2018-09-23T22:36:39.171Z,100195.45
2018-09-23T22:39:08.262Z,100199.46
2018-09-23T22:41:39.470Z,100209.27
2018-09-23T22:44:09.840Z,100203.47
2018-09-23T22:46:38.773Z,100202.94
2018-09-23T22:49:07.417Z,100215.72
2018-09-23T22:51:35.907Z,100216.78
2018-09-23T22:54:04.429Z,100219.70
2018-09-23T22:56:32.990Z,100226.55
2018-09-23T22:59:01.448Z,100225.20
2018-09-23T23:01:30.144Z,100236.61
2018-09-23T23:03:58.603Z,100235.02
2018-09-23T23:06:27.105Z,100237.68
2018-09-23T23:08:57.096Z,100245.91
2018-09-23T23:11:25.682Z,100243.30
2018-09-23T23:13:54.218Z,100249.92
2018-09-23T23:16:22.749Z,100256.80
2018-09-23T23:18:51.290Z,100249.92
2018-09-23T23:21:20.847Z,100254.73
2018-09-23T23:23:49.440Z,100263.73
2018-09-23T23:26:18.037Z,100278.11
2018-09-23T23:28:46.494Z,100279.70
2018-09-23T23:31:14.993Z,100292.17
2018-09-23T23:33:43.552Z,100297.48
2018-09-23T23:36:11.982Z,100308.37
2018-09-23T23:38:40.540Z,100308.91
2018-09-23T23:41:09.438Z,100319.29
2018-09-23T23:43:38.601Z,100325.66
2018-09-23T23:46:07.224Z,100339.21
2018-09-23T23:48:35.884Z,100341.33
2018-09-23T23:51:04.458Z,100346.39
2018-09-23T23:53:33.076Z,100351.20
2018-09-23T23:56:01.640Z,100357.05
2018-09-23T23:58:30.509Z,100385.97
